ヘネラル・マリアノ・エソコベド国際空港の過去48時間の天気

ヘネラル・マリアノ・エソコベド国際空港 (Monterrey / Gen Maria)

現在時刻: 1/18 04:26 CST (1/18 10:26 UTC) 以下の時間は現地時間です。

過去48時間のMETAR気象情報
時間 風向 風速(m/s) 視程 気温(℃) 湿度(%) 気圧(hPa) 天気現象
18 03:42 静穏 0 800m 18 100 1017
18 02:40 北西 2 1600m 18 100 1018 もや 煙霧
18 01:40 西南西 3 3200m 18 100 1019 もや 煙霧
18 00:40 静穏 0 2400m 18 100 1019 弱い雨 もや
18 00:18 静穏 0 3200m 18 100 1019 弱い雨 もや
17 23:40 静穏 0 4850m 18 100 1020 弱い雨 もや
17 23:12 北北西 3 4850m 18 100 1021 弱い雨 もや
17 22:51 西北西 3 4850m 18 100 1021 雨 もや
17 21:40 静穏 0 8050m 18 94 1019
17 20:49 静穏 0 4850m 18 100 1019 もや
17 19:47 静穏 0 4850m 18 100 1019 もや
17 18:47 静穏 0 4850m 18 100 1019 もや
17 17:48 静穏 0 4850m 18 100 1018 もや
17 16:41 北西 3 4850m 19 94 1018 もや
17 15:46 静穏 0 4850m 19 94 1018 もや
17 14:48 静穏 0 6450m 20 94 1018
17 13:40 西北西 2 3200m 20 94 1018 弱い霧雨 もや
MMMY 180942Z 00000KT 1/2SM FG VV003 18/18 A3004 RMK 8////
MMMY 180840Z 31004KT 1SM BR HZ OVC005 18/18 A3005 RMK SLP/// 5//// 9// 60015 8/4//
MMMY 180740Z 24005KT 2SM BR HZ BKN006 OVC010 18/18 A3008 RMK 60035 8/4// -RAE20
MMMY 180640Z 00000KT 1 1/2SM -RA BR BKN005 OVC010CB 18/18 A3010 RMK 60135 8/3// RWY WET
MMMY 180618Z 00000KT 2SM -RA BR BKN005 OVC010CB 18/18 A3010 RMK 8/3//
MMMY 180540Z 00000KT 3SM -RA BR OVC010CB 18/18 A3013 RMK SLP/// 5//// 9// 60075 8/3// OCNL LTGIC
MMMY 180512Z 33005KT 3SM -RA BR OVC010CB 18/18 A3014 RMK 8/3// RAE10B-RA OCNL LTG
MMMY 180451Z 29005KT 3SM RA BR OVC010CB 18/18 A3014 RMK 8/3// RAB47
MMMY 180340Z 00000KT 5SM OVC010 18/17 A3010 RMK 8/5// HZY
MMMY 180249Z 00000KT 3SM BR BKN010 18/18 A3009 RMK SLP/// 5//// 9// 8/700
MMMY 180147Z 00000KT 3SM BR OVC010 18/18 A3008 RMK 8/7//
MMMY 180047Z 00000KT 3SM BR OVC008 18/18 A3008 RMK 8/7//
MMMY 172348Z 00000KT 3SM BR OVC005 18/18 A3007 RMK SLP/// 5//// 9// 8/7//
MMMY 172241Z 31005KT 3SM BR OVC005 19/18 A3006 RMK 8/7//
MMMY 172146Z 00000KT 3SM BR BKN010 OVC015 19/18 A3005 RMK 8/7// LWR SC E
MMMY 172048Z 00000KT 4SM SCT010 OVC015 20/19 A3005 RMK SLP/// 5//// 9// 60025 8/7// DZE35 OCNL DROPS
MMMY 171940Z 29003KT 2SM -DZ BR BKN004 OVC006 20/19 A3007 RMK 60025 8/7//